sensor_id;sensor_type;location;lat;lon;timestamp;pressure;altitude;pressure_sealevel;temperature;humidity
41515;BME280;27247;48.020;16.720;2023-04-30T00:02:41;99942.06;;;12.14;100.00
41515;BME280;27247;48.020;16.720;2023-04-30T00:06:51;99951.84;;;12.07;100.00
41515;BME280;27247;48.020;16.720;2023-04-30T00:11:01;99949.59;;;11.96;100.00
41515;BME280;27247;48.020;16.720;2023-04-30T00:15:11;99950.03;;;11.85;100.00
41515;BME280;27247;48.020;16.720;2023-04-30T00:19:22;99965.00;;;11.94;100.00
41515;BME280;27247;48.020;16.720;2023-04-30T00:23:32;99964.00;;;11.95;100.00
41515;BME280;27247;48.020;16.720;2023-04-30T00:27:42;99959.56;;;11.87;100.00
41515;BME280;27247;48.020;16.720;2023-04-30T00:31:53;99965.00;;;11.94;100.00
41515;BME280;27247;48.020;16.720;2023-04-30T00:36:03;99967.59;;;11.87;100.00
41515;BME280;27247;48.020;16.720;2023-04-30T00:40:14;99971.81;;;11.81;100.00
41515;BME280;27247;48.020;16.720;2023-04-30T00:44:25;99977.53;;;11.78;100.00
41515;BME280;27247;48.020;16.720;2023-04-30T00:48:36;99975.88;;;11.77;100.00
41515;BME280;27247;48.020;16.720;2023-04-30T00:52:46;99979.22;;;11.71;100.00
41515;BME280;27247;48.020;16.720;2023-04-30T00:56:57;99974.13;;;11.62;97.48
41515;BME280;27247;48.020;16.720;2023-04-30T01:01:07;99992.22;;;11.29;95.46
41515;BME280;27247;48.020;16.720;2023-04-30T01:05:18;99996.66;;;11.44;95.80
41515;BME280;27247;48.020;16.720;2023-04-30T01:09:29;100000.22;;;11.29;94.52
41515;BME280;27247;48.020;16.720;2023-04-30T01:13:47;100004.50;;;11.15;94.99
41515;BME280;27247;48.020;16.720;2023-04-30T01:18:06;100003.66;;;11.14;94.68
41515;BME280;27247;48.020;16.720;2023-04-30T01:31:17;100013.88;;;11.11;94.22
41515;BME280;27247;48.020;16.720;2023-04-30T01:45:07;100003.59;;;10.92;95.06
41515;BME280;27247;48.020;16.720;2023-04-30T01:49:26;100013.16;;;10.86;95.49
41515;BME280;27247;48.020;16.720;2023-04-30T01:53:41;100006.28;;;10.92;95.59
41515;BME280;27247;48.020;16.720;2023-04-30T01:57:57;100014.94;;;10.94;95.48
41515;BME280;27247;48.020;16.720;2023-04-30T02:02:08;100013.63;;;10.90;95.32
41515;BME280;27247;48.020;16.720;2023-04-30T02:06:19;100022.31;;;10.92;95.10
41515;BME280;27247;48.020;16.720;2023-04-30T02:10:29;100022.34;;;10.83;95.27
41515;BME280;27247;48.020;16.720;2023-04-30T02:14:39;100024.53;;;10.80;95.10
41515;BME280;27247;48.020;16.720;2023-04-30T02:18:50;100033.88;;;10.84;95.51
41515;BME280;27247;48.020;16.720;2023-04-30T02:23:01;100039.22;;;10.84;95.67
41515;BME280;27247;48.020;16.720;2023-04-30T02:27:11;100042.06;;;10.82;95.79
41515;BME280;27247;48.020;16.720;2023-04-30T02:31:22;100039.59;;;10.73;96.20
41515;BME280;27247;48.020;16.720;2023-04-30T02:35:32;100046.75;;;10.80;96.55
41515;BME280;27247;48.020;16.720;2023-04-30T02:39:42;100046.25;;;10.77;96.27
41515;BME280;27247;48.020;16.720;2023-04-30T02:43:53;100047.59;;;10.81;95.77
41515;BME280;27247;48.020;16.720;2023-04-30T02:48:03;100055.78;;;10.79;95.85
41515;BME280;27247;48.020;16.720;2023-04-30T02:52:14;100046.75;;;10.80;95.34
41515;BME280;27247;48.020;16.720;2023-04-30T02:56:24;100054.09;;;10.78;95.27
41515;BME280;27247;48.020;16.720;2023-04-30T03:00:35;100052.47;;;10.69;94.76
41515;BME280;27247;48.020;16.720;2023-04-30T03:04:45;100064.47;;;10.81;94.34
41515;BME280;27247;48.020;16.720;2023-04-30T03:08:56;100064.94;;;10.85;94.88
41515;BME280;27247;48.020;16.720;2023-04-30T03:13:06;100071.81;;;10.79;94.36
41515;BME280;27247;48.020;16.720;2023-04-30T03:17:16;100082.00;;;10.76;94.05
41515;BME280;27247;48.020;16.720;2023-04-30T03:21:27;100076.81;;;10.82;94.26
41515;BME280;27247;48.020;16.720;2023-04-30T03:25:37;100073.81;;;10.77;94.64
41515;BME280;27247;48.020;16.720;2023-04-30T03:29:47;100075.84;;;10.75;94.73
41515;BME280;27247;48.020;16.720;2023-04-30T03:33:58;100076.84;;;10.66;94.85
41515;BME280;27247;48.020;16.720;2023-04-30T03:38:08;100089.22;;;10.59;94.24
41515;BME280;27247;48.020;16.720;2023-04-30T03:42:19;100090.53;;;10.71;94.10
41515;BME280;27247;48.020;16.720;2023-04-30T03:46:29;100100.56;;;10.69;93.90
41515;BME280;27247;48.020;16.720;2023-04-30T03:50:39;100104.06;;;10.70;93.89
41515;BME280;27247;48.020;16.720;2023-04-30T03:54:50;100107.91;;;10.75;93.19
41515;BME280;27247;48.020;16.720;2023-04-30T03:59:00;100104.22;;;10.76;93.72
41515;BME280;27247;48.020;16.720;2023-04-30T04:03:11;100115.59;;;10.70;94.20
41515;BME280;27247;48.020;16.720;2023-04-30T04:07:21;100115.25;;;10.73;94.36
41515;BME280;27247;48.020;16.720;2023-04-30T04:11:32;100116.59;;;10.77;94.10
41515;BME280;27247;48.020;16.720;2023-04-30T04:15:43;100123.94;;;10.75;94.32
41515;BME280;27247;48.020;16.720;2023-04-30T04:19:53;100133.13;;;10.73;94.19
41515;BME280;27247;48.020;16.720;2023-04-30T04:24:04;100133.47;;;10.70;94.21
41515;BME280;27247;48.020;16.720;2023-04-30T04:28:17;100134.47;;;10.69;94.20
41515;BME280;27247;48.020;16.720;2023-04-30T04:32:28;100135.31;;;10.77;93.84
41515;BME280;27247;48.020;16.720;2023-04-30T04:36:39;100136.63;;;10.81;93.77
41515;BME280;27247;48.020;16.720;2023-04-30T04:40:51;100149.34;;;10.71;93.73
41515;BME280;27247;48.020;16.720;2023-04-30T04:45:06;100151.84;;;10.73;93.48
41515;BME280;27247;48.020;16.720;2023-04-30T04:49:17;100154.03;;;10.69;93.64
41515;BME280;27247;48.020;16.720;2023-04-30T04:53:27;100156.84;;;10.84;94.10
41515;BME280;27247;48.020;16.720;2023-04-30T04:57:37;100156.69;;;10.85;93.41
41515;BME280;27247;48.020;16.720;2023-04-30T05:01:48;100161.66;;;10.97;93.91
41515;BME280;27247;48.020;16.720;2023-04-30T05:05:58;100164.31;;;11.05;93.29
41515;BME280;27247;48.020;16.720;2023-04-30T05:10:09;100167.31;;;11.18;92.58
41515;BME280;27247;48.020;16.720;2023-04-30T05:14:19;100168.63;;;11.22;90.47
41515;BME280;27247;48.020;16.720;2023-04-30T05:18:30;100175.44;;;11.33;90.63
41515;BME280;27247;48.020;16.720;2023-04-30T05:22:42;100178.44;;;11.38;89.77
41515;BME280;27247;48.020;16.720;2023-04-30T05:26:53;100178.09;;;11.41;90.77
41515;BME280;27247;48.020;16.720;2023-04-30T05:31:03;100182.44;;;11.50;89.79
41515;BME280;27247;48.020;16.720;2023-04-30T05:35:15;100188.63;;;11.42;87.51
41515;BME280;27247;48.020;16.720;2023-04-30T05:39:26;100196.16;;;11.55;89.66
41515;BME280;27247;48.020;16.720;2023-04-30T05:43:36;100194.44;;;11.62;88.89
41515;BME280;27247;48.020;16.720;2023-04-30T05:47:46;100191.06;;;11.68;88.52
41515;BME280;27247;48.020;16.720;2023-04-30T05:51:58;100197.91;;;11.71;88.36
41515;BME280;27247;48.020;16.720;2023-04-30T05:56:08;100200.75;;;11.77;88.37
41515;BME280;27247;48.020;16.720;2023-04-30T06:00:18;100200.03;;;11.92;88.57
41515;BME280;27247;48.020;16.720;2023-04-30T06:04:29;100204.47;;;12.07;86.55
41515;BME280;27247;48.020;16.720;2023-04-30T06:08:40;100206.97;;;12.09;86.80
41515;BME280;27247;48.020;16.720;2023-04-30T06:12:53;100210.47;;;12.09;86.05
41515;BME280;27247;48.020;16.720;2023-04-30T06:17:04;100201.59;;;12.09;85.44
41515;BME280;27247;48.020;16.720;2023-04-30T06:21:14;100207.75;;;12.18;84.61
41515;BME280;27247;48.020;16.720;2023-04-30T06:25:25;100204.66;;;12.29;83.46
41515;BME280;27247;48.020;16.720;2023-04-30T06:29:39;100220.97;;;12.50;83.64
41515;BME280;27247;48.020;16.720;2023-04-30T06:33:49;100220.91;;;12.58;82.71
41515;BME280;27247;48.020;16.720;2023-04-30T06:38:02;100230.31;;;12.77;84.64
41515;BME280;27247;48.020;16.720;2023-04-30T06:42:12;100218.50;;;12.86;82.79
41515;BME280;27247;48.020;16.720;2023-04-30T06:46:22;100224.34;;;12.90;81.63
41515;BME280;27247;48.020;16.720;2023-04-30T06:50:33;100215.28;;;12.91;80.80
41515;BME280;27247;48.020;16.720;2023-04-30T06:54:43;100218.81;;;13.06;81.85
41515;BME280;27247;48.020;16.720;2023-04-30T06:58:53;100225.06;;;13.21;81.53
41515;BME280;27247;48.020;16.720;2023-04-30T07:03:04;100224.06;;;13.22;78.02
41515;BME280;27247;48.020;16.720;2023-04-30T07:07:14;100224.94;;;13.15;78.16
41515;BME280;27247;48.020;16.720;2023-04-30T07:11:25;100217.59;;;13.31;77.50
41515;BME280;27247;48.020;16.720;2023-04-30T07:15:35;100216.09;;;13.29;76.43
41515;BME280;27247;48.020;16.720;2023-04-30T07:19:46;100217.72;;;13.53;77.52
41515;BME280;27247;48.020;16.720;2023-04-30T07:23:56;100213.69;;;13.49;76.79
41515;BME280;27247;48.020;16.720;2023-04-30T07:28:06;100223.56;;;13.56;76.03
41515;BME280;27247;48.020;16.720;2023-04-30T07:32:17;100224.16;;;13.43;73.36
41515;BME280;27247;48.020;16.720;2023-04-30T07:36:27;100220.00;;;13.85;77.06
41515;BME280;27247;48.020;16.720;2023-04-30T07:40:38;100219.38;;;13.83;72.48
41515;BME280;27247;48.020;16.720;2023-04-30T07:44:48;100228.97;;;13.92;72.62
41515;BME280;27247;48.020;16.720;2023-04-30T07:48:58;100224.94;;;13.67;69.79
41515;BME280;27247;48.020;16.720;2023-04-30T07:53:08;100219.94;;;13.79;71.44
41515;BME280;27247;48.020;16.720;2023-04-30T07:57:19;100230.81;;;14.06;70.18
41515;BME280;27247;48.020;16.720;2023-04-30T08:01:30;100243.31;;;14.14;68.64
41515;BME280;27247;48.020;16.720;2023-04-30T08:05:41;100240.91;;;14.04;69.12
41515;BME280;27247;48.020;16.720;2023-04-30T08:09:51;100242.34;;;14.22;70.58
41515;BME280;27247;48.020;16.720;2023-04-30T08:14:02;100243.69;;;14.11;66.63
41515;BME280;27247;48.020;16.720;2023-04-30T08:18:12;100246.69;;;14.37;70.41
41515;BME280;27247;48.020;16.720;2023-04-30T08:22:23;100246.91;;;14.21;65.73
41515;BME280;27247;48.020;16.720;2023-04-30T08:26:33;100253.56;;;14.25;67.69
41515;BME280;27247;48.020;16.720;2023-04-30T08:30:43;100257.16;;;14.47;67.00
41515;BME280;27247;48.020;16.720;2023-04-30T08:34:54;100251.03;;;14.38;69.40
41515;BME280;27247;48.020;16.720;2023-04-30T08:39:04;100243.69;;;14.62;68.49
41515;BME280;27247;48.020;16.720;2023-04-30T08:43:15;100256.63;;;14.73;67.98
41515;BME280;27247;48.020;16.720;2023-04-30T08:47:26;100267.56;;;14.72;65.33
41515;BME280;27247;48.020;16.720;2023-04-30T08:51:36;100254.00;;;14.80;65.39
41515;BME280;27247;48.020;16.720;2023-04-30T08:55:47;100265.25;;;14.90;67.67
41515;BME280;27247;48.020;16.720;2023-04-30T08:59:59;100261.22;;;14.79;65.83
41515;BME280;27247;48.020;16.720;2023-04-30T09:04:09;100262.72;;;14.82;66.02
41515;BME280;27247;48.020;16.720;2023-04-30T09:13:08;100264.94;;;14.99;65.64
41515;BME280;27247;48.020;16.720;2023-04-30T09:17:22;100268.22;;;14.95;65.33
41515;BME280;27247;48.020;16.720;2023-04-30T09:21:34;100269.75;;;15.04;65.33
41515;BME280;27247;48.020;16.720;2023-04-30T09:25:44;100258.59;;;15.07;65.28
41515;BME280;27247;48.020;16.720;2023-04-30T09:29:55;100252.13;;;15.01;64.06
41515;BME280;27247;48.020;16.720;2023-04-30T09:34:05;100259.31;;;15.22;65.12
41515;BME280;27247;48.020;16.720;2023-04-30T09:38:30;100250.78;;;15.68;64.79
41515;BME280;27247;48.020;16.720;2023-04-30T09:42:57;100253.75;;;15.80;62.83
41515;BME280;27247;48.020;16.720;2023-04-30T09:47:17;100249.44;;;15.85;62.56
41515;BME280;27247;48.020;16.720;2023-04-30T09:51:29;100252.81;;;16.01;62.73
41515;BME280;27247;48.020;16.720;2023-04-30T09:55:45;100255.09;;;15.97;62.23
41515;BME280;27247;48.020;16.720;2023-04-30T09:59:57;100265.16;;;16.23;60.90
41515;BME280;27247;48.020;16.720;2023-04-30T10:04:07;100258.50;;;16.19;63.22
41515;BME280;27247;48.020;16.720;2023-04-30T10:08:30;100254.66;;;15.93;60.82
41515;BME280;27247;48.020;16.720;2023-04-30T10:12:55;100250.59;;;16.17;60.66
41515;BME280;27247;48.020;16.720;2023-04-30T10:17:13;100247.94;;;16.24;60.63
41515;BME280;27247;48.020;16.720;2023-04-30T10:21:26;100246.66;;;16.13;61.09
41515;BME280;27247;48.020;16.720;2023-04-30T10:25:37;100235.63;;;16.08;59.77
41515;BME280;27247;48.020;16.720;2023-04-30T10:29:48;100242.31;;;16.19;61.20
41515;BME280;27247;48.020;16.720;2023-04-30T10:38:22;100224.88;;;17.02;60.88
41515;BME280;27247;48.020;16.720;2023-04-30T10:42:34;100212.59;;;17.13;59.48
41515;BME280;27247;48.020;16.720;2023-04-30T10:46:45;100216.13;;;16.74;59.49
41515;BME280;27247;48.020;16.720;2023-04-30T10:50:58;100218.63;;;16.75;60.51
41515;BME280;27247;48.020;16.720;2023-04-30T10:55:09;100209.28;;;17.17;60.39
41515;BME280;27247;48.020;16.720;2023-04-30T10:59:19;100202.75;;;17.58;59.57
41515;BME280;27247;48.020;16.720;2023-04-30T11:03:30;100201.38;;;18.07;59.70
41515;BME280;27247;48.020;16.720;2023-04-30T11:08:03;100198.00;;;17.53;57.73
41515;BME280;27247;48.020;16.720;2023-04-30T11:12:19;100197.84;;;17.22;58.86
41515;BME280;27247;48.020;16.720;2023-04-30T11:16:33;100197.03;;;16.88;60.12
41515;BME280;27247;48.020;16.720;2023-04-30T11:20:50;100190.19;;;17.12;60.69
41515;BME280;27247;48.020;16.720;2023-04-30T11:25:06;100198.09;;;16.87;58.36
41515;BME280;27247;48.020;16.720;2023-04-30T11:29:18;100197.88;;;16.69;58.72
41515;BME280;27247;48.020;16.720;2023-04-30T11:33:30;100202.22;;;16.77;63.01
41515;BME280;27247;48.020;16.720;2023-04-30T11:37:43;100182.69;;;17.14;61.83
41515;BME280;27247;48.020;16.720;2023-04-30T11:41:53;100189.66;;;17.68;61.48
41515;BME280;27247;48.020;16.720;2023-04-30T11:46:07;100187.38;;;17.59;59.87
41515;BME280;27247;48.020;16.720;2023-04-30T11:50:20;100179.06;;;17.67;60.06
41515;BME280;27247;48.020;16.720;2023-04-30T11:54:36;100182.38;;;17.82;60.36
41515;BME280;27247;48.020;16.720;2023-04-30T11:58:48;100180.31;;;17.71;58.25
41515;BME280;27247;48.020;16.720;2023-04-30T12:02:59;100179.53;;;17.31;58.19
41515;BME280;27247;48.020;16.720;2023-04-30T12:07:10;100171.09;;;17.92;58.85
41515;BME280;27247;48.020;16.720;2023-04-30T12:11:22;100174.63;;;17.92;57.89
41515;BME280;27247;48.020;16.720;2023-04-30T12:15:34;100172.53;;;17.94;56.86
41515;BME280;27247;48.020;16.720;2023-04-30T12:19:44;100170.94;;;18.18;56.28
41515;BME280;27247;48.020;16.720;2023-04-30T12:23:55;100167.63;;;18.47;55.84
41515;BME280;27247;48.020;16.720;2023-04-30T12:28:05;100169.88;;;17.81;55.47
41515;BME280;27247;48.020;16.720;2023-04-30T12:32:20;100148.72;;;18.09;57.57
41515;BME280;27247;48.020;16.720;2023-04-30T12:36:31;100154.47;;;17.88;57.54
41515;BME280;27247;48.020;16.720;2023-04-30T12:40:45;100153.75;;;18.06;57.19
41515;BME280;27247;48.020;16.720;2023-04-30T12:44:57;100159.16;;;18.06;57.18
41515;BME280;27247;48.020;16.720;2023-04-30T12:49:07;100154.53;;;18.13;58.65
41515;BME280;27247;48.020;16.720;2023-04-30T12:53:17;100146.78;;;18.23;57.76
41515;BME280;27247;48.020;16.720;2023-04-30T12:57:28;100143.38;;;18.03;59.02
41515;BME280;27247;48.020;16.720;2023-04-30T13:01:43;100145.31;;;17.89;57.50
41515;BME280;27247;48.020;16.720;2023-04-30T13:05:54;100133.19;;;17.34;59.71
41515;BME280;27247;48.020;16.720;2023-04-30T13:10:05;100141.16;;;17.02;59.78
41515;BME280;27247;48.020;16.720;2023-04-30T13:14:16;100139.88;;;16.58;59.69
41515;BME280;27247;48.020;16.720;2023-04-30T13:18:27;100143.41;;;16.46;61.78
41515;BME280;27247;48.020;16.720;2023-04-30T13:22:37;100144.84;;;16.35;61.48
41515;BME280;27247;48.020;16.720;2023-04-30T13:26:48;100135.50;;;16.24;61.69
41515;BME280;27247;48.020;16.720;2023-04-30T13:30:58;100136.53;;;16.30;62.47
41515;BME280;27247;48.020;16.720;2023-04-30T13:35:09;100132.41;;;16.47;62.63
41515;BME280;27247;48.020;16.720;2023-04-30T13:39:20;100120.78;;;16.47;63.36
41515;BME280;27247;48.020;16.720;2023-04-30T13:43:30;100127.50;;;16.77;63.02
41515;BME280;27247;48.020;16.720;2023-04-30T13:47:41;100113.75;;;16.92;60.31
41515;BME280;27247;48.020;16.720;2023-04-30T13:51:51;100102.94;;;17.12;59.78
41515;BME280;27247;48.020;16.720;2023-04-30T13:56:02;100091.38;;;17.49;59.30
41515;BME280;27247;48.020;16.720;2023-04-30T14:00:13;100103.38;;;17.60;57.52
41515;BME280;27247;48.020;16.720;2023-04-30T14:04:23;100090.78;;;17.41;58.01
41515;BME280;27247;48.020;16.720;2023-04-30T14:08:33;100095.00;;;17.23;61.02
41515;BME280;27247;48.020;16.720;2023-04-30T14:12:44;100092.34;;;17.10;60.74
41515;BME280;27247;48.020;16.720;2023-04-30T14:16:54;100088.31;;;17.33;60.76
41515;BME280;27247;48.020;16.720;2023-04-30T14:21:04;100086.50;;;17.65;59.64
41515;BME280;27247;48.020;16.720;2023-04-30T14:25:15;100084.91;;;17.50;59.76
41515;BME280;27247;48.020;16.720;2023-04-30T14:29:26;100077.47;;;17.46;59.18
41515;BME280;27247;48.020;16.720;2023-04-30T14:33:36;100083.66;;;16.88;60.49
41515;BME280;27247;48.020;16.720;2023-04-30T14:37:46;100076.75;;;17.12;60.31
41515;BME280;27247;48.020;16.720;2023-04-30T14:41:57;100078.59;;;17.18;58.25
41515;BME280;27247;48.020;16.720;2023-04-30T14:46:07;100081.84;;;17.40;59.05
41515;BME280;27247;48.020;16.720;2023-04-30T14:50:18;100073.47;;;17.55;58.50
41515;BME280;27247;48.020;16.720;2023-04-30T14:54:28;100078.31;;;17.40;57.99
41515;BME280;27247;48.020;16.720;2023-04-30T14:58:38;100071.06;;;17.34;58.36
41515;BME280;27247;48.020;16.720;2023-04-30T15:02:49;100075.59;;;17.46;58.79
41515;BME280;27247;48.020;16.720;2023-04-30T15:07:00;100073.34;;;17.37;56.77
41515;BME280;27247;48.020;16.720;2023-04-30T15:11:11;100073.41;;;17.17;58.04
41515;BME280;27247;48.020;16.720;2023-04-30T15:15:22;100071.53;;;17.17;58.17
41515;BME280;27247;48.020;16.720;2023-04-30T15:19:36;100080.91;;;17.08;58.57
41515;BME280;27247;48.020;16.720;2023-04-30T15:23:47;100071.56;;;17.11;59.25
41515;BME280;27247;48.020;16.720;2023-04-30T15:27:59;100070.19;;;16.82;58.60
41515;BME280;27247;48.020;16.720;2023-04-30T15:32:09;100076.38;;;16.63;58.98
41515;BME280;27247;48.020;16.720;2023-04-30T15:36:20;100071.81;;;16.43;61.33
41515;BME280;27247;48.020;16.720;2023-04-30T15:40:32;100080.94;;;16.42;61.84
41515;BME280;27247;48.020;16.720;2023-04-30T15:44:42;100071.81;;;16.37;58.12
41515;BME280;27247;48.020;16.720;2023-04-30T15:48:53;100068.91;;;16.45;59.24
41515;BME280;27247;48.020;16.720;2023-04-30T15:53:03;100077.84;;;16.45;58.76
41515;BME280;27247;48.020;16.720;2023-04-30T15:57:13;100074.72;;;16.48;57.53
41515;BME280;27247;48.020;16.720;2023-04-30T16:01:24;100068.50;;;16.54;57.92
41515;BME280;27247;48.020;16.720;2023-04-30T16:05:34;100079.06;;;16.56;57.65
41515;BME280;27247;48.020;16.720;2023-04-30T16:09:47;100066.63;;;16.55;59.02
41515;BME280;27247;48.020;16.720;2023-04-30T16:13:58;100059.16;;;16.57;58.96
41515;BME280;27247;48.020;16.720;2023-04-30T16:18:08;100062.25;;;16.54;59.13
41515;BME280;27247;48.020;16.720;2023-04-30T16:22:19;100063.72;;;16.56;58.23
41515;BME280;27247;48.020;16.720;2023-04-30T16:26:30;100055.22;;;16.53;59.51
41515;BME280;27247;48.020;16.720;2023-04-30T16:30:41;100062.06;;;16.42;58.05
41515;BME280;27247;48.020;16.720;2023-04-30T16:34:51;100050.66;;;16.34;59.45
41515;BME280;27247;48.020;16.720;2023-04-30T16:39:02;100050.03;;;16.25;58.18
41515;BME280;27247;48.020;16.720;2023-04-30T16:43:12;100058.13;;;16.18;58.98
41515;BME280;27247;48.020;16.720;2023-04-30T16:47:22;100048.56;;;16.16;59.81
41515;BME280;27247;48.020;16.720;2023-04-30T16:51:33;100051.91;;;16.18;59.94
41515;BME280;27247;48.020;16.720;2023-04-30T16:55:43;100051.69;;;16.13;59.81
41515;BME280;27247;48.020;16.720;2023-04-30T16:59:54;100051.06;;;16.04;60.93
41515;BME280;27247;48.020;16.720;2023-04-30T17:04:04;100053.75;;;15.98;59.84
41515;BME280;27247;48.020;16.720;2023-04-30T17:08:14;100066.81;;;15.94;61.10
41515;BME280;27247;48.020;16.720;2023-04-30T17:12:25;100056.22;;;15.86;60.93
41515;BME280;27247;48.020;16.720;2023-04-30T17:16:35;100055.56;;;15.77;61.58
41515;BME280;27247;48.020;16.720;2023-04-30T17:20:46;100063.84;;;15.69;61.83
41515;BME280;27247;48.020;16.720;2023-04-30T17:24:58;100061.34;;;15.61;61.85
41515;BME280;27247;48.020;16.720;2023-04-30T17:29:09;100068.75;;;15.59;62.24
41515;BME280;27247;48.020;16.720;2023-04-30T17:33:19;100070.38;;;15.53;62.58
41515;BME280;27247;48.020;16.720;2023-04-30T17:37:29;100061.00;;;15.43;63.31
41515;BME280;27247;48.020;16.720;2023-04-30T17:41:40;100067.41;;;15.35;63.68
41515;BME280;27247;48.020;16.720;2023-04-30T17:45:51;100072.53;;;15.23;64.25
41515;BME280;27247;48.020;16.720;2023-04-30T17:50:02;100078.66;;;15.11;64.46
41515;BME280;27247;48.020;16.720;2023-04-30T17:54:17;100085.44;;;15.00;65.23
41515;BME280;27247;48.020;16.720;2023-04-30T17:58:28;100081.66;;;14.88;65.84
41515;BME280;27247;48.020;16.720;2023-04-30T18:02:40;100084.06;;;14.76;66.30
41515;BME280;27247;48.020;16.720;2023-04-30T18:06:51;100084.19;;;14.68;66.84
41515;BME280;27247;48.020;16.720;2023-04-30T18:11:02;100084.56;;;14.58;67.06
41515;BME280;27247;48.020;16.720;2023-04-30T18:15:12;100087.16;;;14.52;66.78
41515;BME280;27247;48.020;16.720;2023-04-30T18:19:24;100086.31;;;14.51;66.80
41515;BME280;27247;48.020;16.720;2023-04-30T18:23:35;100089.78;;;14.45;66.04
41515;BME280;27247;48.020;16.720;2023-04-30T18:27:46;100089.78;;;14.45;65.99
41515;BME280;27247;48.020;16.720;2023-04-30T18:31:56;100092.41;;;14.38;66.62
41515;BME280;27247;48.020;16.720;2023-04-30T18:36:07;100091.06;;;14.28;67.47
41515;BME280;27247;48.020;16.720;2023-04-30T18:40:17;100101.63;;;14.08;67.99
41515;BME280;27247;48.020;16.720;2023-04-30T18:44:29;100105.28;;;14.00;68.63
41515;BME280;27247;48.020;16.720;2023-04-30T18:48:43;100113.88;;;13.74;69.51
41515;BME280;27247;48.020;16.720;2023-04-30T18:52:53;100104.84;;;13.31;72.32
41515;BME280;27247;48.020;16.720;2023-04-30T18:57:04;100119.03;;;13.25;72.68
41515;BME280;27247;48.020;16.720;2023-04-30T19:01:14;100114.19;;;13.06;73.95
41515;BME280;27247;48.020;16.720;2023-04-30T19:05:27;100127.94;;;12.88;74.56
41515;BME280;27247;48.020;16.720;2023-04-30T19:09:37;100141.88;;;12.69;75.09
41515;BME280;27247;48.020;16.720;2023-04-30T19:13:47;100137.03;;;12.50;76.34
41515;BME280;27247;48.020;16.720;2023-04-30T19:17:58;100134.28;;;12.35;77.15
41515;BME280;27247;48.020;16.720;2023-04-30T19:22:08;100140.66;;;12.34;76.93
41515;BME280;27247;48.020;16.720;2023-04-30T19:26:19;100148.56;;;12.27;77.77
41515;BME280;27247;48.020;16.720;2023-04-30T19:30:31;100145.16;;;12.33;76.99
41515;BME280;27247;48.020;16.720;2023-04-30T19:34:41;100144.91;;;12.51;76.29
41515;BME280;27247;48.020;16.720;2023-04-30T19:38:54;100154.47;;;12.45;74.75
41515;BME280;27247;48.020;16.720;2023-04-30T19:43:04;100155.19;;;12.39;74.80
41515;BME280;27247;48.020;16.720;2023-04-30T19:47:15;100155.88;;;12.33;75.88
41515;BME280;27247;48.020;16.720;2023-04-30T19:51:25;100151.09;;;11.67;77.74
41515;BME280;27247;48.020;16.720;2023-04-30T19:55:36;100160.19;;;11.41;78.60
41515;BME280;27247;48.020;16.720;2023-04-30T19:59:47;100158.28;;;11.19;78.98
41515;BME280;27247;48.020;16.720;2023-04-30T20:03:58;100159.19;;;10.79;80.45
41515;BME280;27247;48.020;16.720;2023-04-30T20:08:08;100160.00;;;10.96;80.49
41515;BME280;27247;48.020;16.720;2023-04-30T20:12:19;100167.66;;;11.07;79.69
41515;BME280;27247;48.020;16.720;2023-04-30T20:16:29;100169.34;;;11.00;79.54
41515;BME280;27247;48.020;16.720;2023-04-30T20:20:40;100170.13;;;11.25;77.85
41515;BME280;27247;48.020;16.720;2023-04-30T20:24:50;100169.25;;;11.40;76.38
41515;BME280;27247;48.020;16.720;2023-04-30T20:29:01;100169.91;;;11.50;75.57
41515;BME280;27247;48.020;16.720;2023-04-30T20:33:12;100174.56;;;11.57;74.92
41515;BME280;27247;48.020;16.720;2023-04-30T20:37:23;100171.34;;;11.61;74.96
41515;BME280;27247;48.020;16.720;2023-04-30T20:41:34;100173.06;;;11.54;75.03
41515;BME280;27247;48.020;16.720;2023-04-30T20:45:45;100175.56;;;11.56;74.51
41515;BME280;27247;48.020;16.720;2023-04-30T20:49:56;100176.59;;;11.46;75.24
41515;BME280;27247;48.020;16.720;2023-04-30T20:54:06;100174.13;;;11.29;77.00
41515;BME280;27247;48.020;16.720;2023-04-30T20:58:18;100180.38;;;11.05;78.94
41515;BME280;27247;48.020;16.720;2023-04-30T21:02:28;100187.25;;;10.83;80.07
41515;BME280;27247;48.020;16.720;2023-04-30T21:06:39;100195.91;;;10.36;80.52
41515;BME280;27247;48.020;16.720;2023-04-30T21:10:49;100201.84;;;10.06;81.76
41515;BME280;27247;48.020;16.720;2023-04-30T21:14:59;100206.19;;;10.07;81.66
41515;BME280;27247;48.020;16.720;2023-04-30T21:19:10;100204.88;;;10.19;82.34
41515;BME280;27247;48.020;16.720;2023-04-30T21:23:20;100201.19;;;10.12;83.24
41515;BME280;27247;48.020;16.720;2023-04-30T21:27:31;100199.38;;;9.70;83.22
41515;BME280;27247;48.020;16.720;2023-04-30T21:31:42;100200.03;;;9.64;83.77
41515;BME280;27247;48.020;16.720;2023-04-30T21:35:52;100209.06;;;9.71;82.76
41515;BME280;27247;48.020;16.720;2023-04-30T21:40:02;100204.94;;;9.85;81.46
41515;BME280;27247;48.020;16.720;2023-04-30T21:44:13;100211.97;;;9.86;80.78
41515;BME280;27247;48.020;16.720;2023-04-30T21:48:23;100215.03;;;10.07;78.87
41515;BME280;27247;48.020;16.720;2023-04-30T21:52:34;100215.03;;;10.15;77.85
41515;BME280;27247;48.020;16.720;2023-04-30T21:56:44;100213.03;;;10.17;77.39
41515;BME280;27247;48.020;16.720;2023-04-30T22:00:55;100217.38;;;10.18;76.49
41515;BME280;27247;48.020;16.720;2023-04-30T22:05:05;100213.09;;;10.26;75.60